createdAt,value
2023-03-06T00:01:25.055Z,14.02
2023-03-06T00:03:49.649Z,13.77
2023-03-06T00:06:15.654Z,12.70
2023-03-06T00:08:41.083Z,13.30
2023-03-06T00:11:05.551Z,13.38
2023-03-06T00:13:32.177Z,12.95
2023-03-06T00:15:59.007Z,12.10
2023-03-06T00:18:23.478Z,12.57
2023-03-06T00:20:47.845Z,12.38
2023-03-06T00:23:13.770Z,11.88
2023-03-06T00:25:39.177Z,12.23
2023-03-06T00:28:03.561Z,12.63
2023-03-06T00:30:28.050Z,12.55
2023-03-06T00:32:54.917Z,12.48
2023-03-06T00:35:20.886Z,12.57
2023-03-06T00:37:46.021Z,12.02
2023-03-06T00:40:16.926Z,13.15
2023-03-06T00:45:06.414Z,12.45
2023-03-06T00:47:30.990Z,12.57
2023-03-06T00:49:55.960Z,13.15
2023-03-06T00:52:20.886Z,12.50
2023-03-06T00:54:45.292Z,12.88
2023-03-06T00:57:11.444Z,12.82
2023-03-06T00:59:36.387Z,12.02
2023-03-06T01:02:00.832Z,12.40
2023-03-06T01:04:25.653Z,11.65
2023-03-06T01:06:50.147Z,13.82
2023-03-06T01:09:14.598Z,12.75
2023-03-06T01:11:39.257Z,11.73
2023-03-06T01:14:05.800Z,11.52
2023-03-06T01:16:30.375Z,12.68
2023-03-06T01:18:54.874Z,12.18
2023-03-06T01:21:20.974Z,11.43
2023-03-06T01:23:45.414Z,12.35
2023-03-06T01:26:10.153Z,11.27
2023-03-06T01:28:35.296Z,12.60
2023-03-06T01:31:02.358Z,12.65
2023-03-06T01:33:26.805Z,12.18
2023-03-06T01:35:51.255Z,12.23
2023-03-06T01:38:15.748Z,12.07
2023-03-06T01:40:41.361Z,12.30
2023-03-06T01:43:12.087Z,13.05
2023-03-06T01:46:22.392Z,12.20
2023-03-06T01:48:49.931Z,11.57
2023-03-06T01:51:14.309Z,12.80
2023-03-06T01:53:39.755Z,12.88
2023-03-06T01:56:04.351Z,12.55
2023-03-06T01:58:28.821Z,13.35
2023-03-06T02:00:53.273Z,12.15
2023-03-06T02:03:22.655Z,14.73
2023-03-06T02:05:48.678Z,12.88
2023-03-06T02:08:16.149Z,12.38
2023-03-06T02:10:43.552Z,13.25
2023-03-06T02:13:07.890Z,13.88
2023-03-06T02:15:33.605Z,14.15
2023-03-06T02:17:58.359Z,13.23
2023-03-06T02:20:30.057Z,13.75
2023-03-06T02:23:01.420Z,13.43
2023-03-06T02:25:34.772Z,12.88
2023-03-06T02:27:59.371Z,12.40
2023-03-06T02:30:26.539Z,12.10
2023-03-06T02:32:50.947Z,12.60
2023-03-06T02:35:20.896Z,12.25
2023-03-06T02:40:13.447Z,12.52
2023-03-06T02:42:39.511Z,11.77
2023-03-06T02:45:04.960Z,12.15
2023-03-06T02:47:29.309Z,12.98
2023-03-06T02:49:53.740Z,12.07
2023-03-06T02:52:19.513Z,12.30
2023-03-06T02:54:43.916Z,13.15
2023-03-06T02:57:08.270Z,12.90
2023-03-06T02:59:36.222Z,13.32
2023-03-06T03:02:02.665Z,12.68
2023-03-06T03:04:28.271Z,13.77
2023-03-06T03:06:52.658Z,13.57
2023-03-06T03:09:17.676Z,13.55
2023-03-06T03:11:42.052Z,14.35
2023-03-06T03:14:06.570Z,14.25
2023-03-06T03:16:32.728Z,13.80
2023-03-06T03:18:57.160Z,14.23
2023-03-06T03:21:21.782Z,13.55
2023-03-06T03:23:46.895Z,13.73
2023-03-06T03:26:13.184Z,13.80
2023-03-06T03:31:06.583Z,14.00
2023-03-06T03:33:33.558Z,14.35
2023-03-06T03:35:59.047Z,15.15
2023-03-06T03:38:24.248Z,14.95
2023-03-06T03:40:48.621Z,14.73
2023-03-06T03:43:13.151Z,14.95
2023-03-06T03:45:37.532Z,14.18
2023-03-06T03:48:03.182Z,14.30
2023-03-06T03:50:29.281Z,14.35
2023-03-06T03:52:53.753Z,13.73
2023-03-06T03:55:18.481Z,14.27
2023-03-06T03:57:43.229Z,14.75
2023-03-06T04:00:14.029Z,14.98
2023-03-06T04:02:38.307Z,13.50
2023-03-06T04:05:12.668Z,15.15
2023-03-06T04:07:41.186Z,13.13
2023-03-06T04:10:07.047Z,13.18
2023-03-06T04:12:32.522Z,13.30
2023-03-06T04:14:57.002Z,12.95
2023-03-06T04:17:21.516Z,12.70
2023-03-06T04:19:46.061Z,12.90
2023-03-06T04:22:10.620Z,14.20
2023-03-06T04:24:38.299Z,14.07
2023-03-06T04:27:03.399Z,13.15
2023-03-06T04:29:28.289Z,14.40
2023-03-06T04:31:52.733Z,15.38
2023-03-06T04:34:17.054Z,13.70
2023-03-06T04:36:45.202Z,14.50
2023-03-06T04:39:11.811Z,14.48
2023-03-06T04:41:39.612Z,15.30
2023-03-06T04:44:04.081Z,14.13
2023-03-06T04:46:28.741Z,14.25
2023-03-06T04:48:53.153Z,14.68
2023-03-06T04:51:17.634Z,15.20
2023-03-06T04:53:42.073Z,14.35
2023-03-06T04:56:07.250Z,14.65
2023-03-06T04:58:33.180Z,15.82
2023-03-06T05:00:57.650Z,13.15
2023-03-06T05:03:22.210Z,14.68
2023-03-06T05:05:46.723Z,14.23
2023-03-06T05:08:15.269Z,14.18
2023-03-06T05:10:39.863Z,15.57
2023-03-06T05:13:04.318Z,16.13
2023-03-06T05:15:30.228Z,15.30
2023-03-06T05:17:55.596Z,17.75
2023-03-06T05:20:20.104Z,17.77
2023-03-06T05:22:44.753Z,17.30
2023-03-06T05:25:11.804Z,17.70
2023-03-06T05:27:36.841Z,17.63
2023-03-06T05:30:01.245Z,17.77
2023-03-06T05:32:28.367Z,14.93
2023-03-06T05:34:52.839Z,15.50
2023-03-06T05:37:17.444Z,14.63
2023-03-06T05:39:42.627Z,14.18
2023-03-06T05:42:07.277Z,15.00
2023-03-06T05:44:33.567Z,13.57
2023-03-06T05:46:58.047Z,13.35
2023-03-06T05:49:23.975Z,14.10
2023-03-06T05:51:48.637Z,15.63
2023-03-06T05:54:12.926Z,13.98
2023-03-06T05:56:41.898Z,15.73
2023-03-06T05:59:07.195Z,14.80
2023-03-06T06:01:31.619Z,15.60
2023-03-06T06:03:56.014Z,14.98
2023-03-06T06:06:21.820Z,15.85
2023-03-06T06:08:46.348Z,15.75
2023-03-06T06:11:11.970Z,16.25
2023-03-06T06:13:36.451Z,16.08
2023-03-06T06:16:01.071Z,16.27
2023-03-06T06:18:25.702Z,16.52
2023-03-06T06:20:50.136Z,16.48
2023-03-06T06:23:16.249Z,15.35
2023-03-06T06:25:41.121Z,15.57
2023-03-06T06:28:05.928Z,15.05
2023-03-06T06:30:30.653Z,16.10
2023-03-06T06:32:55.331Z,14.27
2023-03-06T06:35:20.126Z,14.93
2023-03-06T06:37:44.570Z,13.77
2023-03-06T06:40:12.087Z,15.23
2023-03-06T06:42:39.898Z,14.55
2023-03-06T06:45:05.989Z,14.68
2023-03-06T06:47:30.435Z,15.23
2023-03-06T06:49:56.264Z,14.48
2023-03-06T06:52:21.331Z,15.65
2023-03-06T06:54:45.824Z,15.10
2023-03-06T06:57:13.303Z,13.27
2023-03-06T06:59:37.681Z,14.27
2023-03-06T07:02:02.527Z,14.02
2023-03-06T07:04:26.956Z,15.05
2023-03-06T07:06:51.350Z,15.27
2023-03-06T07:09:16.261Z,15.93
2023-03-06T07:11:41.694Z,15.60
2023-03-06T07:14:07.650Z,14.88
2023-03-06T07:16:32.187Z,14.35
2023-03-06T07:18:56.737Z,14.55
2023-03-06T07:21:22.578Z,14.15
2023-03-06T07:23:47.020Z,14.13
2023-03-06T07:26:12.531Z,14.07
2023-03-06T07:28:51.221Z,13.45
2023-03-06T07:31:17.728Z,14.25
2023-03-06T07:33:42.304Z,15.48
2023-03-06T07:36:13.884Z,13.73
2023-03-06T07:38:38.509Z,14.57
2023-03-06T07:41:02.839Z,15.60
2023-03-06T07:43:27.229Z,15.50
2023-03-06T07:45:59.004Z,15.52
2023-03-06T07:48:25.107Z,15.35
2023-03-06T07:50:56.997Z,15.52
2023-03-06T07:53:23.135Z,15.88
2023-03-06T07:55:47.633Z,15.93
2023-03-06T07:58:11.991Z,15.88
2023-03-06T08:00:36.385Z,15.23
2023-03-06T08:03:01.000Z,15.93
2023-03-06T08:05:26.815Z,15.98
2023-03-06T08:07:51.593Z,15.48
2023-03-06T08:10:17.302Z,14.65
2023-03-06T08:12:43.129Z,14.88
2023-03-06T08:15:10.363Z,15.85
2023-03-06T08:17:35.126Z,15.00
2023-03-06T08:19:59.805Z,14.60
2023-03-06T08:22:25.932Z,16.10
2023-03-06T08:24:50.237Z,15.50
2023-03-06T08:27:14.743Z,15.70
2023-03-06T08:29:39.092Z,16.27
2023-03-06T08:32:03.526Z,16.67
2023-03-06T08:34:28.339Z,16.25
2023-03-06T08:36:53.459Z,17.60
2023-03-06T08:39:19.410Z,18.63
2023-03-06T08:41:44.118Z,18.80
2023-03-06T08:44:08.560Z,21.00
2023-03-06T08:46:34.961Z,20.15
2023-03-06T08:48:59.443Z,19.98
2023-03-06T08:51:24.143Z,19.63
2023-03-06T08:53:49.031Z,18.45
2023-03-06T08:56:19.192Z,19.17
2023-03-06T08:58:43.727Z,20.30
2023-03-06T09:01:14.724Z,19.35
2023-03-06T09:03:39.152Z,20.08
2023-03-06T09:06:04.678Z,19.48
2023-03-06T09:08:29.150Z,19.58
2023-03-06T09:10:53.522Z,21.80
2023-03-06T09:13:19.418Z,19.38
2023-03-06T09:15:43.772Z,20.15
2023-03-06T09:18:08.323Z,19.58
2023-03-06T09:20:35.442Z,20.63
2023-03-06T09:23:00.569Z,22.23
2023-03-06T09:25:25.168Z,23.17
2023-03-06T09:28:01.821Z,21.55
2023-03-06T09:30:31.306Z,20.98
2023-03-06T09:32:55.757Z,21.52
2023-03-06T09:35:20.296Z,21.90
2023-03-06T09:37:44.762Z,22.13
2023-03-06T09:40:14.194Z,23.17
2023-03-06T09:42:40.982Z,24.67
2023-03-06T09:45:06.907Z,25.80
2023-03-06T09:47:48.571Z,25.02
2023-03-06T09:50:27.695Z,23.23
2023-03-06T09:53:31.600Z,24.80
2023-03-06T09:56:03.007Z,25.25
2023-03-06T09:58:29.982Z,26.67
2023-03-06T10:01:01.106Z,25.95
2023-03-06T10:03:30.324Z,25.58
2023-03-06T10:06:02.414Z,27.20
2023-03-06T10:08:35.800Z,25.17
2023-03-06T10:11:03.662Z,24.27
2023-03-06T10:13:33.969Z,21.95
2023-03-06T10:16:08.811Z,22.55
2023-03-06T10:18:40.578Z,24.35
2023-03-06T10:21:18.836Z,22.98
2023-03-06T10:23:51.770Z,23.95
2023-03-06T10:26:20.953Z,24.08
2023-03-06T10:28:51.299Z,24.08
2023-03-06T10:31:21.821Z,23.77
2023-03-06T10:33:56.057Z,22.48
2023-03-06T10:36:22.470Z,22.13
2023-03-06T10:38:48.799Z,24.02
2023-03-06T10:41:24.055Z,21.98
2023-03-06T10:44:27.048Z,21.08
2023-03-06T10:46:54.274Z,21.50
2023-03-06T10:49:41.376Z,21.92
2023-03-06T10:52:08.733Z,20.00
2023-03-06T10:54:35.194Z,20.05
2023-03-06T10:57:00.126Z,21.13
2023-03-06T10:59:26.587Z,20.85
2023-03-06T11:01:52.305Z,20.38
2023-03-06T11:04:23.505Z,18.48
2023-03-06T11:06:49.908Z,19.35
2023-03-06T11:09:22.605Z,19.38
2023-03-06T11:11:47.438Z,18.88
2023-03-06T11:14:18.178Z,19.50
2023-03-06T11:16:52.021Z,19.88
2023-03-06T11:19:23.028Z,17.23
2023-03-06T11:22:01.874Z,17.73
2023-03-06T11:24:26.755Z,18.42
2023-03-06T11:26:55.592Z,17.23
2023-03-06T11:29:29.634Z,15.75
2023-03-06T11:31:57.967Z,16.10
2023-03-06T11:34:30.649Z,15.15
2023-03-06T11:37:01.749Z,15.60
2023-03-06T11:39:34.095Z,15.18
2023-03-06T11:42:06.411Z,15.68
2023-03-06T11:44:42.499Z,15.60
2023-03-06T11:47:14.784Z,15.40
2023-03-06T11:49:45.382Z,16.55
2023-03-06T11:52:21.101Z,15.88
2023-03-06T11:54:45.753Z,17.02
2023-03-06T11:57:17.245Z,16.90
2023-03-06T11:59:56.519Z,16.92
2023-03-06T12:02:34.281Z,17.73
2023-03-06T12:05:10.811Z,18.95
2023-03-06T12:07:41.616Z,17.05
2023-03-06T12:10:17.444Z,17.38
2023-03-06T12:13:05.435Z,17.17
2023-03-06T12:15:46.628Z,16.92
2023-03-06T12:18:28.266Z,17.52
2023-03-06T12:21:02.254Z,16.13
2023-03-06T12:24:05.285Z,15.90
2023-03-06T12:26:44.075Z,14.90
2023-03-06T12:29:28.125Z,16.13
2023-03-06T12:32:04.959Z,15.25
2023-03-06T12:35:01.557Z,17.25
2023-03-06T12:37:40.160Z,16.90
2023-03-06T12:40:39.832Z,16.40
2023-03-06T12:43:21.965Z,16.25
2023-03-06T12:45:48.244Z,15.25
2023-03-06T12:48:21.329Z,16.65
2023-03-06T12:50:47.212Z,15.75
2023-03-06T12:53:18.355Z,16.25
2023-03-06T12:55:47.125Z,16.30
2023-03-06T12:58:51.020Z,15.18
2023-03-06T13:01:38.725Z,16.30
2023-03-06T13:04:20.680Z,16.23
2023-03-06T13:06:56.765Z,15.93
2023-03-06T13:09:25.866Z,16.60
2023-03-06T13:12:17.633Z,16.20
2023-03-06T13:14:58.984Z,16.55
2023-03-06T13:17:37.220Z,16.10
2023-03-06T13:20:32.542Z,17.20
2023-03-06T13:22:58.930Z,16.10
2023-03-06T13:25:50.844Z,16.65
2023-03-06T13:28:26.436Z,15.70
2023-03-06T13:30:53.293Z,16.65
2023-03-06T13:33:52.840Z,15.48
2023-03-06T13:36:26.937Z,16.40
2023-03-06T13:39:08.676Z,16.65
2023-03-06T13:41:58.154Z,15.52
2023-03-06T13:44:44.103Z,16.70
2023-03-06T13:47:28.923Z,16.25
2023-03-06T13:49:53.457Z,15.98
2023-03-06T13:52:24.122Z,15.38
2023-03-06T13:54:56.295Z,15.18
2023-03-06T13:57:49.455Z,14.57
2023-03-06T14:00:43.466Z,15.90
2023-03-06T14:03:37.308Z,16.52
2023-03-06T14:06:02.531Z,18.48
2023-03-06T14:08:30.021Z,18.02
2023-03-06T14:11:02.831Z,18.60
2023-03-06T14:13:45.243Z,17.23
2023-03-06T14:16:18.558Z,17.35
2023-03-06T14:18:48.324Z,19.20
2023-03-06T14:21:15.889Z,18.17
2023-03-06T14:23:43.848Z,17.73
2023-03-06T14:26:15.322Z,18.50
2023-03-06T14:28:39.731Z,17.83
2023-03-06T14:31:06.199Z,18.08
2023-03-06T14:33:34.973Z,17.13
2023-03-06T14:36:03.660Z,17.42
2023-03-06T14:40:55.348Z,17.10
2023-03-06T14:43:23.254Z,17.80
2023-03-06T14:45:52.515Z,18.08
2023-03-06T14:48:17.101Z,17.45
2023-03-06T14:50:42.215Z,18.83
2023-03-06T14:53:16.601Z,18.75
2023-03-06T14:55:50.328Z,17.65
2023-03-06T14:58:20.774Z,18.50
2023-03-06T15:00:49.623Z,16.90
2023-03-06T15:03:18.346Z,17.45
2023-03-06T15:05:45.282Z,17.83
2023-03-06T15:08:12.343Z,18.60
2023-03-06T15:10:39.686Z,17.63
2023-03-06T15:13:12.489Z,16.95
2023-03-06T15:15:36.913Z,16.08
2023-03-06T15:18:01.634Z,17.73
2023-03-06T15:20:48.251Z,17.05
2023-03-06T15:23:21.279Z,17.38
2023-03-06T15:25:52.551Z,18.02
2023-03-06T15:28:37.247Z,17.90
2023-03-06T15:31:19.585Z,17.90
2023-03-06T15:33:44.249Z,17.42
2023-03-06T15:36:20.911Z,17.77
2023-03-06T15:38:48.287Z,18.75
2023-03-06T15:41:23.891Z,19.52
2023-03-06T15:43:49.062Z,18.80
2023-03-06T15:46:13.405Z,17.30
2023-03-06T15:48:37.801Z,17.35
2023-03-06T15:51:02.534Z,17.52
2023-03-06T15:53:27.120Z,18.70
2023-03-06T15:55:54.185Z,17.58
2023-03-06T15:58:23.579Z,19.08
2023-03-06T16:00:48.104Z,18.38
2023-03-06T16:03:13.665Z,19.20
2023-03-06T16:05:38.638Z,18.17
2023-03-06T16:08:03.743Z,17.27
2023-03-06T16:10:30.202Z,17.52
2023-03-06T16:12:58.074Z,18.50
2023-03-06T16:15:25.379Z,18.40
2023-03-06T16:17:50.735Z,18.10
2023-03-06T16:20:17.573Z,18.08
2023-03-06T16:22:42.243Z,19.23
2023-03-06T16:25:07.444Z,18.23
2023-03-06T16:27:31.824Z,18.42
2023-03-06T16:29:57.565Z,18.58
2023-03-06T16:32:22.032Z,18.92
2023-03-06T16:34:46.662Z,26.83
2023-03-06T16:37:13.938Z,27.05
2023-03-06T16:39:38.542Z,24.75
2023-03-06T16:42:03.432Z,20.52
2023-03-06T16:44:27.977Z,21.58
2023-03-06T16:46:53.937Z,20.67
2023-03-06T16:49:20.184Z,19.63
2023-03-06T16:51:45.203Z,19.42
2023-03-06T16:54:10.361Z,19.83
2023-03-06T16:56:34.740Z,20.38
2023-03-06T16:58:59.150Z,20.67
2023-03-06T17:01:23.951Z,21.05
2023-03-06T17:03:49.709Z,20.10
2023-03-06T17:06:18.644Z,21.02
2023-03-06T17:08:42.980Z,20.30
2023-03-06T17:11:07.644Z,20.23
2023-03-06T17:13:32.159Z,19.55
2023-03-06T17:15:59.580Z,21.33
2023-03-06T17:18:25.249Z,20.33
2023-03-06T17:20:51.882Z,22.95
2023-03-06T17:23:16.280Z,21.80
2023-03-06T17:25:41.916Z,22.58
2023-03-06T17:28:06.544Z,21.33
2023-03-06T17:30:31.856Z,20.25
2023-03-06T17:32:58.224Z,24.17
2023-03-06T17:35:23.003Z,21.83
2023-03-06T17:37:48.856Z,22.73
2023-03-06T17:40:15.579Z,23.58
2023-03-06T17:42:39.911Z,31.48
2023-03-06T17:45:04.714Z,31.42
2023-03-06T17:47:31.467Z,34.40
2023-03-06T17:49:56.403Z,35.30
2023-03-06T17:52:21.018Z,35.20
2023-03-06T17:54:47.090Z,37.45
2023-03-06T17:57:11.459Z,34.25
2023-03-06T17:59:35.955Z,25.17
2023-03-06T18:02:06.392Z,24.92
2023-03-06T18:04:31.448Z,20.75
2023-03-06T18:06:57.111Z,21.45
2023-03-06T18:09:21.460Z,20.65
2023-03-06T18:11:48.136Z,22.92
2023-03-06T18:14:12.898Z,27.00
2023-03-06T18:16:38.819Z,24.48
2023-03-06T18:19:05.371Z,25.13
2023-03-06T18:21:30.291Z,23.52
2023-03-06T18:23:55.670Z,37.25
2023-03-06T18:26:22.956Z,34.83
2023-03-06T18:28:50.904Z,36.03
2023-03-06T18:31:16.783Z,35.97
2023-03-06T18:33:44.873Z,37.63
2023-03-06T18:36:10.313Z,38.25
2023-03-06T18:38:35.246Z,40.15
2023-03-06T18:41:00.009Z,40.38
2023-03-06T18:43:24.833Z,39.13
2023-03-06T18:45:57.036Z,38.40
2023-03-06T18:48:22.804Z,38.60
2023-03-06T18:50:47.928Z,35.97
2023-03-06T18:53:12.466Z,23.42
2023-03-06T18:55:38.456Z,40.55
2023-03-06T18:58:02.896Z,43.65
2023-03-06T19:00:27.786Z,46.78
2023-03-06T19:02:55.126Z,50.40
2023-03-06T19:05:19.805Z,47.63
2023-03-06T19:07:44.625Z,48.67
2023-03-06T19:10:11.774Z,46.13
2023-03-06T19:12:36.751Z,52.03
2023-03-06T19:15:01.314Z,48.95
2023-03-06T19:17:27.407Z,47.13
2023-03-06T19:19:53.160Z,55.47
2023-03-06T19:22:17.727Z,60.08
2023-03-06T19:24:43.385Z,67.55
2023-03-06T19:27:07.990Z,71.75
2023-03-06T19:29:32.592Z,65.35
2023-03-06T19:31:58.941Z,65.70
2023-03-06T19:34:25.876Z,68.25
2023-03-06T19:36:53.019Z,70.10
2023-03-06T19:39:18.452Z,71.80
2023-03-06T19:41:42.979Z,70.63
2023-03-06T19:44:07.503Z,73.18
2023-03-06T19:46:32.072Z,71.20
2023-03-06T19:48:57.828Z,73.10
2023-03-06T19:51:22.305Z,70.75
2023-03-06T19:53:48.083Z,72.28
2023-03-06T19:56:17.063Z,71.25
2023-03-06T19:58:41.860Z,70.00
2023-03-06T20:01:07.713Z,68.25
2023-03-06T20:03:32.177Z,66.57
2023-03-06T20:05:57.080Z,68.40
2023-03-06T20:08:21.520Z,67.35
2023-03-06T20:10:47.648Z,68.88
2023-03-06T20:13:11.991Z,67.63
2023-03-06T20:15:36.933Z,66.90
2023-03-06T20:18:01.298Z,64.55
2023-03-06T20:20:25.774Z,62.92
2023-03-06T20:22:50.505Z,60.95
2023-03-06T20:25:14.915Z,62.97
2023-03-06T20:27:40.805Z,63.78
2023-03-06T20:30:07.897Z,64.93
2023-03-06T20:32:33.429Z,72.22
2023-03-06T20:34:58.041Z,70.70
2023-03-06T20:37:22.618Z,61.63
2023-03-06T20:39:48.097Z,68.38
2023-03-06T20:42:12.460Z,63.72
2023-03-06T20:44:38.327Z,65.63
2023-03-06T20:47:02.984Z,62.88
2023-03-06T20:49:28.520Z,64.55
2023-03-06T20:51:53.337Z,60.13
2023-03-06T20:54:20.608Z,58.50
2023-03-06T20:56:48.983Z,53.70
2023-03-06T20:59:15.398Z,57.30
2023-03-06T21:01:43.914Z,53.53
2023-03-06T21:04:08.742Z,52.53
2023-03-06T21:06:33.373Z,61.55
2023-03-06T21:08:58.183Z,54.30
2023-03-06T21:11:23.447Z,50.78
2023-03-06T21:13:47.954Z,50.40
2023-03-06T21:16:15.653Z,52.35
2023-03-06T21:18:41.566Z,55.70
2023-03-06T21:21:07.400Z,59.47
2023-03-06T21:23:31.771Z,61.50
2023-03-06T21:25:56.326Z,58.65
2023-03-06T21:28:21.267Z,56.33
2023-03-06T21:30:45.955Z,54.45
2023-03-06T21:33:11.598Z,57.03
2023-03-06T21:35:40.259Z,59.03
2023-03-06T21:38:04.803Z,52.55
2023-03-06T21:40:29.237Z,49.90
2023-03-06T21:42:53.593Z,51.38
2023-03-06T21:45:18.195Z,45.92
2023-03-06T21:47:42.550Z,48.17
2023-03-06T21:50:09.105Z,44.00
2023-03-06T21:52:34.972Z,43.47
2023-03-06T21:54:59.334Z,46.33
2023-03-06T21:57:23.906Z,42.05
2023-03-06T21:59:50.363Z,41.40
2023-03-06T22:02:14.758Z,46.65
2023-03-06T22:04:39.054Z,51.25
2023-03-06T22:07:03.795Z,49.88
2023-03-06T22:09:29.542Z,44.60
2023-03-06T22:11:53.948Z,42.63
2023-03-06T22:14:18.809Z,46.72
2023-03-06T22:16:43.214Z,44.58
2023-03-06T22:19:08.003Z,45.03
2023-03-06T22:21:33.395Z,43.58
2023-03-06T22:23:58.941Z,43.67
2023-03-06T22:26:25.246Z,46.60
2023-03-06T22:28:49.691Z,45.63
2023-03-06T22:31:15.745Z,43.83
2023-03-06T22:33:40.170Z,41.95
2023-03-06T22:36:07.694Z,39.33
2023-03-06T22:38:32.436Z,42.25
2023-03-06T22:40:58.017Z,42.30
2023-03-06T22:43:23.719Z,44.42
2023-03-06T22:45:48.354Z,43.63
2023-03-06T22:48:12.909Z,44.80
2023-03-06T22:50:37.338Z,40.75
2023-03-06T22:53:01.625Z,31.65
2023-03-06T22:55:26.621Z,35.35
2023-03-06T22:57:51.009Z,52.58
2023-03-06T23:00:20.268Z,43.03
2023-03-06T23:02:45.040Z,40.42
2023-03-06T23:05:09.908Z,44.13
2023-03-06T23:07:34.329Z,45.28
2023-03-06T23:09:58.981Z,45.80
2023-03-06T23:12:42.327Z,40.47
2023-03-06T23:15:27.181Z,35.33
2023-03-06T23:18:10.389Z,39.75
2023-03-06T23:20:54.855Z,38.47
2023-03-06T23:23:38.154Z,34.88
2023-03-06T23:26:03.796Z,36.60
2023-03-06T23:28:28.566Z,35.55
2023-03-06T23:30:54.628Z,35.67
2023-03-06T23:33:18.963Z,35.67
2023-03-06T23:35:44.253Z,38.13
2023-03-06T23:38:08.619Z,38.20
2023-03-06T23:40:36.517Z,44.25
2023-03-06T23:43:03.459Z,43.03
2023-03-06T23:45:27.812Z,42.22
2023-03-06T23:47:53.537Z,40.33
2023-03-06T23:50:18.820Z,40.17
2023-03-06T23:52:44.227Z,38.80
2023-03-06T23:55:09.527Z,35.22
2023-03-06T23:57:34.663Z,36.88
2023-03-06T23:59:59.073Z,35.20
